Gladeville, Tennessee
Current Conditions -  °F | °C
As of 10:53 PM on Wednesday 22 Oct 2014 (Local Time) from KBNA Reporting Station
Clear Clear  
Wind Chill: 50°   Ceiling: Unl
Heat Index: 50°   Visibility: 10mi
Dew Point: 43°   Wind: 5mph
Humidity: 77%   Direction: 60°ENE
Pressure: 30.23"   Gusts: NA
Location:  36.11°N, 86.42°W
Report Text: KBNA 230353Z 06004KT 10SM CLR 10/06 A3023 RMK AO2 SLP234 T01000061
Loading
Personal Weather Stations






























Interactive Weather Map New forecast layout! Learn more

10-Day Weather Forecast

Advertisements
Track Severe Weather on mobile